This is the latest recevied weather packets stored in our database for station/object WC4PEM-7. If no packets are shown the sender has not sent any weather packets the latest 1 day(s).
| Time | Temp. | Humidity | Pressure | Rain* | Wind** | Luminosity | Snow |
|---|---|---|---|---|---|---|---|
| 1778080108 | 28.89° C | 66% | 1017.1 hPa | 0 mm | - | - | - |
| 1778079208 | 27.78° C | 67% | 1016.8 hPa | 0 mm | - | - | - |
| 1778078908 | 27.78° C | 67% | 1016.9 hPa | 0 mm | - | - | - |
| 1778078757 | 27.78° C | 70% | 1017 hPa | 0 mm | - | - | - |
| 1778078308 | 27.78° C | 69% | 1017 hPa | 0 mm | - | - | - |
| 1778077708 | 27.22° C | 71% | 1017.3 hPa | 0 mm | - | - | - |
| 1778077408 | 27.22° C | 72% | 1017.4 hPa | 0 mm | - | - | - |
| 1778077250 | 27.22° C | 71% | 1017.4 hPa | 0 mm | - | - | - |
| 1778077108 | 27.22° C | 71% | 1017.4 hPa | 0 mm | - | - | - |
| 1778076508 | 27.22° C | 75% | 1017.4 hPa | 0 mm | - | - | - |
| 1778075430 | 26.11° C | 79% | 1017.3 hPa | 0 mm | - | - | - |
| 1778070255 | 22.22° C | 88% | 1016.6 hPa | 0 mm | - | - | - |
| 1778068755 | 21.11° C | 90% | 1016.5 hPa | 0 mm | - | - | - |
| 1778067841 | 20.56° C | 91% | 1016.4 hPa | 0 mm | - | - | - |
| 1778065109 | 19.44° C | 90% | 1016 hPa | 0 mm | - | - | - |
| 1778064509 | 19.44° C | 90% | 1015.9 hPa | 0 mm | - | - | - |
| 1778064209 | 19.44° C | 90% | 1015.7 hPa | 0 mm | - | - | - |
| 1778063909 | 19.44° C | 90% | 1015.5 hPa | 0 mm | - | - | - |
| 1778063609 | 19.44° C | 90% | 1015.6 hPa | 0 mm | - | - | - |
| 1778063309 | 19.44° C | 91% | 1015.5 hPa | 0 mm | - | - | - |
| 1778063009 | 19.44° C | 91% | 1015.6 hPa | 0 mm | - | - | - |
| 1778062709 | 18.89° C | 91% | 1015.5 hPa | 0 mm | - | - | - |
| 1778062409 | 18.89° C | 90% | 1015.6 hPa | 0 mm | - | - | - |
| 1778062109 | 18.89° C | 89% | 1015.7 hPa | 0 mm | - | - | - |
| 1778061809 | 18.89° C | 89% | 1015.7 hPa | 0 mm | - | - | - |
* Rain latest hour (hover to see other rain measurements)
** Current wind speed in m/s (hover to see current wind gust speed)